createdAt,value
2019-05-15T00:02:19.218Z,8.00
2019-05-15T00:04:49.805Z,7.90
2019-05-15T00:07:20.365Z,7.90
2019-05-15T00:09:50.931Z,7.90
2019-05-15T00:12:21.660Z,7.90
2019-05-15T00:14:52.486Z,7.90
2019-05-15T00:17:22.894Z,7.90
2019-05-15T00:19:53.480Z,7.90
2019-05-15T00:22:24.161Z,7.90
2019-05-15T00:24:54.849Z,7.90
2019-05-15T00:27:25.486Z,7.90
2019-05-15T00:29:57.933Z,7.90
2019-05-15T00:32:29.469Z,7.90
2019-05-15T00:35:00.921Z,7.90
2019-05-15T00:37:31.861Z,7.90
2019-05-15T00:40:02.694Z,7.90
2019-05-15T00:42:33.316Z,7.90
2019-05-15T00:45:04.240Z,7.90
2019-05-15T00:47:34.815Z,7.90
2019-05-15T00:50:08.725Z,7.90
2019-05-15T00:52:39.414Z,7.90
2019-05-15T00:55:11.437Z,7.90
2019-05-15T00:57:41.953Z,7.90
2019-05-15T01:00:12.618Z,7.90
2019-05-15T01:02:43.244Z,7.90
2019-05-15T01:05:14.142Z,7.90
2019-05-15T01:07:44.639Z,7.90
2019-05-15T01:10:15.147Z,7.90
2019-05-15T01:12:45.613Z,7.90
2019-05-15T01:15:18.295Z,7.90
2019-05-15T01:17:49.216Z,7.90
2019-05-15T01:20:19.780Z,7.90
2019-05-15T01:22:50.551Z,7.90
2019-05-15T01:25:21.051Z,8.00
2019-05-15T01:27:51.530Z,8.00
2019-05-15T01:30:23.241Z,7.90
2019-05-15T01:32:53.867Z,7.90
2019-05-15T01:35:24.614Z,7.90
2019-05-15T01:37:55.139Z,7.90
2019-05-15T01:40:25.807Z,7.90
2019-05-15T01:42:58.309Z,7.90
2019-05-15T01:45:28.931Z,7.90
2019-05-15T01:47:59.657Z,7.90
2019-05-15T01:50:30.207Z,7.90
2019-05-15T01:53:01.225Z,7.90
2019-05-15T01:55:31.713Z,7.90
2019-05-15T01:58:02.285Z,7.90
2019-05-15T02:00:33.031Z,7.90
2019-05-15T02:03:03.823Z,7.90
2019-05-15T02:05:34.701Z,7.90
2019-05-15T02:08:08.024Z,7.90
2019-05-15T02:10:39.178Z,7.90
2019-05-15T02:13:10.337Z,7.90
2019-05-15T02:15:40.801Z,7.90
2019-05-15T02:18:11.695Z,7.90
2019-05-15T02:20:42.388Z,7.90
2019-05-15T02:23:13.158Z,7.90
2019-05-15T02:25:43.888Z,8.00
2019-05-15T02:28:14.606Z,7.90
2019-05-15T02:30:45.349Z,8.00
2019-05-15T02:33:18.844Z,7.90
2019-05-15T02:35:50.061Z,8.00
2019-05-15T02:38:21.302Z,8.00
2019-05-15T02:40:51.998Z,8.00
2019-05-15T02:43:22.557Z,7.90
2019-05-15T02:45:53.288Z,8.00
2019-05-15T02:48:24.006Z,7.90
2019-05-15T02:50:54.673Z,8.00
2019-05-15T02:53:25.169Z,7.90
2019-05-15T02:55:55.736Z,8.00
2019-05-15T02:58:28.884Z,8.00
2019-05-15T03:00:59.260Z,8.00
2019-05-15T03:03:30.264Z,8.00
2019-05-15T03:06:01.010Z,7.90
2019-05-15T03:08:31.526Z,7.90
2019-05-15T03:11:02.134Z,7.90
2019-05-15T03:13:32.749Z,8.00
2019-05-15T03:16:03.228Z,7.90
2019-05-15T03:18:33.850Z,8.00
2019-05-15T03:21:04.444Z,8.00
2019-05-15T03:23:35.196Z,8.00
2019-05-15T03:26:08.633Z,8.00
2019-05-15T03:28:39.500Z,8.00
2019-05-15T03:31:32.289Z,8.00
2019-05-15T03:33:46.303Z,8.00
2019-05-15T03:36:15.365Z,8.00
2019-05-15T03:38:45.984Z,8.00
2019-05-15T03:41:19.368Z,8.00
2019-05-15T03:43:49.857Z,8.00
2019-05-15T03:46:20.466Z,8.00
2019-05-15T03:48:50.987Z,8.00
2019-05-15T03:51:21.522Z,8.00
2019-05-15T03:53:51.949Z,8.00
2019-05-15T03:56:22.709Z,8.00
2019-05-15T03:58:53.225Z,8.00
2019-05-15T04:01:33.527Z,8.00
2019-05-15T04:03:59.620Z,8.00
2019-05-15T04:06:29.921Z,8.00
2019-05-15T04:09:00.733Z,8.00
2019-05-15T04:11:32.671Z,8.00
2019-05-15T04:14:03.524Z,8.10
2019-05-15T04:16:34.304Z,8.10
2019-05-15T04:19:04.926Z,8.10
2019-05-15T04:21:41.174Z,8.10
2019-05-15T04:24:09.488Z,8.10
2019-05-15T04:26:41.547Z,8.10
2019-05-15T04:29:13.313Z,8.10
2019-05-15T04:31:55.764Z,8.10
2019-05-15T04:34:19.262Z,8.10
2019-05-15T04:36:49.982Z,8.10
2019-05-15T04:39:20.604Z,8.20
2019-05-15T04:41:51.306Z,8.20
2019-05-15T04:44:22.106Z,8.20
2019-05-15T04:46:54.859Z,8.20
2019-05-15T04:49:28.809Z,8.20
2019-05-15T04:52:03.204Z,8.30
2019-05-15T04:54:30.869Z,8.30
2019-05-15T04:57:01.572Z,8.30
2019-05-15T04:59:32.288Z,8.30
2019-05-15T05:02:16.273Z,8.40
2019-05-15T05:04:38.521Z,8.40
2019-05-15T05:07:09.384Z,8.50
2019-05-15T05:09:41.418Z,8.40
2019-05-15T05:12:12.120Z,8.50
2019-05-15T05:14:43.484Z,8.60
2019-05-15T05:17:13.990Z,8.60
2019-05-15T05:19:44.750Z,8.60
2019-05-15T05:22:15.356Z,8.60
2019-05-15T05:24:47.849Z,8.60
2019-05-15T05:27:18.515Z,8.70
2019-05-15T05:29:49.825Z,8.70
2019-05-15T05:32:31.380Z,8.70
2019-05-15T05:34:55.537Z,8.70
2019-05-15T05:37:27.969Z,8.70
2019-05-15T05:39:59.188Z,8.70
2019-05-15T05:42:30.269Z,8.70
2019-05-15T05:45:00.861Z,8.80
2019-05-15T05:47:32.087Z,8.80
2019-05-15T05:50:03.019Z,8.80
2019-05-15T05:52:34.420Z,8.80
2019-05-15T05:55:05.401Z,8.80
2019-05-15T05:57:38.044Z,8.90
2019-05-15T06:00:09.765Z,8.80
2019-05-15T06:02:48.053Z,8.80
2019-05-15T06:05:15.649Z,8.80
2019-05-15T06:07:48.682Z,8.80
2019-05-15T06:10:19.483Z,8.80
2019-05-15T06:12:50.253Z,8.80
2019-05-15T06:15:21.138Z,8.80
2019-05-15T06:17:51.915Z,8.80
2019-05-15T06:20:22.385Z,8.90
2019-05-15T06:22:54.657Z,8.90
2019-05-15T06:25:25.595Z,8.90
2019-05-15T06:27:58.364Z,8.90
2019-05-15T06:30:30.930Z,9.00
2019-05-15T06:33:09.159Z,9.00
2019-05-15T06:35:34.518Z,9.00
2019-05-15T06:38:05.402Z,9.00
2019-05-15T06:40:39.334Z,9.10
2019-05-15T06:43:09.187Z,9.10
2019-05-15T06:45:40.288Z,9.20
2019-05-15T06:48:10.993Z,9.20
2019-05-15T06:50:42.668Z,9.20
2019-05-15T06:53:13.676Z,9.20
2019-05-15T06:55:44.542Z,9.20
2019-05-15T06:58:15.118Z,9.30
2019-05-15T07:00:48.426Z,9.20
2019-05-15T07:03:24.948Z,9.30
2019-05-15T07:05:51.276Z,9.30
2019-05-15T07:08:21.954Z,9.20
2019-05-15T07:10:53.024Z,9.30
2019-05-15T07:13:24.107Z,9.30
2019-05-15T07:15:55.062Z,9.30
2019-05-15T07:18:28.172Z,9.40
2019-05-15T07:20:58.624Z,9.40
2019-05-15T07:23:30.815Z,9.40
2019-05-15T07:26:01.821Z,9.50
2019-05-15T07:28:32.318Z,9.50
2019-05-15T07:31:02.928Z,9.50
2019-05-15T07:33:39.006Z,9.50
2019-05-15T07:36:08.208Z,9.50
2019-05-15T07:38:39.209Z,9.60
2019-05-15T07:41:11.060Z,9.60
2019-05-15T07:43:41.652Z,9.60
2019-05-15T07:46:12.704Z,9.60
2019-05-15T07:48:44.053Z,9.70
2019-05-15T07:51:14.796Z,9.70
2019-05-15T07:53:45.347Z,9.70
2019-05-15T07:56:18.026Z,9.70
2019-05-15T07:58:52.527Z,9.80
2019-05-15T08:01:20.616Z,9.80
2019-05-15T08:03:59.572Z,9.80
2019-05-15T08:06:24.822Z,9.70
2019-05-15T08:08:55.542Z,9.70
2019-05-15T08:11:28.723Z,9.80
2019-05-15T08:13:59.264Z,9.80
2019-05-15T08:16:30.473Z,9.80
2019-05-15T08:19:01.356Z,9.80
2019-05-15T08:21:32.271Z,9.90
2019-05-15T08:24:04.901Z,9.80
2019-05-15T08:26:37.802Z,9.90
2019-05-15T08:29:08.527Z,9.90
2019-05-15T08:31:39.912Z,9.90
2019-05-15T08:34:15.872Z,9.90
2019-05-15T08:36:44.101Z,9.90
2019-05-15T08:39:15.319Z,9.90
2019-05-15T08:41:48.283Z,9.90
2019-05-15T08:44:18.886Z,9.90
2019-05-15T08:46:49.823Z,9.90
2019-05-15T08:49:20.806Z,9.90
2019-05-15T08:51:51.626Z,10.00
2019-05-15T08:54:22.288Z,10.00
2019-05-15T08:56:53.574Z,9.90
2019-05-15T08:59:25.767Z,10.00
2019-05-15T09:01:58.256Z,10.00
2019-05-15T09:04:34.615Z,10.00
2019-05-15T09:07:01.714Z,10.00
2019-05-15T09:09:32.430Z,10.00
2019-05-15T09:12:03.544Z,10.00
2019-05-15T09:14:34.460Z,10.00
2019-05-15T09:17:08.511Z,10.00
2019-05-15T09:19:38.758Z,10.00
2019-05-15T09:22:09.740Z,10.00
2019-05-15T09:24:41.642Z,10.00
2019-05-15T09:27:12.512Z,10.00
2019-05-15T09:29:44.759Z,10.10
2019-05-15T09:32:15.589Z,10.20
2019-05-15T09:34:51.706Z,10.20
2019-05-15T09:37:19.131Z,10.20
2019-05-15T09:39:50.070Z,10.20
2019-05-15T09:42:20.924Z,10.20
2019-05-15T09:44:51.898Z,10.30
2019-05-15T09:47:22.945Z,10.30
2019-05-15T09:49:53.976Z,10.30
2019-05-15T09:52:24.973Z,10.40
2019-05-15T09:54:55.855Z,10.40
2019-05-15T09:57:26.598Z,10.40
2019-05-15T09:59:58.964Z,10.50
2019-05-15T10:02:29.485Z,10.60
2019-05-15T10:05:06.372Z,10.60
2019-05-15T10:07:33.533Z,10.60
2019-05-15T10:10:04.786Z,10.60
2019-05-15T10:12:35.465Z,10.60
2019-05-15T10:15:11.221Z,10.60
2019-05-15T10:17:40.139Z,10.60
2019-05-15T10:20:11.322Z,10.60
2019-05-15T10:22:41.850Z,10.60
2019-05-15T10:25:12.969Z,10.70
2019-05-15T10:27:43.576Z,10.70
2019-05-15T10:30:15.278Z,10.80
2019-05-15T10:32:48.480Z,10.80
2019-05-15T10:35:25.730Z,10.80
2019-05-15T10:37:50.785Z,10.90
2019-05-15T10:40:21.732Z,10.90
2019-05-15T10:42:52.312Z,10.90
2019-05-15T10:45:23.203Z,10.90
2019-05-15T10:47:53.996Z,10.90
2019-05-15T10:50:25.028Z,10.90
2019-05-15T10:52:55.542Z,10.90
2019-05-15T10:55:26.228Z,10.90
2019-05-15T10:57:58.499Z,10.90
2019-05-15T11:00:29.306Z,10.90
2019-05-15T11:03:00.003Z,10.90
2019-05-15T11:05:41.055Z,10.90
2019-05-15T11:08:04.488Z,10.90
2019-05-15T11:10:41.479Z,11.00
2019-05-15T11:13:09.039Z,11.00
2019-05-15T11:15:42.556Z,11.00
2019-05-15T11:18:11.991Z,11.10
2019-05-15T11:20:42.799Z,11.10
2019-05-15T11:23:20.063Z,11.10
2019-05-15T11:25:50.787Z,11.10
2019-05-15T11:28:21.360Z,11.00
2019-05-15T11:30:52.264Z,11.10
2019-05-15T11:33:23.256Z,11.10
2019-05-15T11:36:00.470Z,11.10
2019-05-15T11:38:32.403Z,11.10
2019-05-15T11:41:04.758Z,11.10
2019-05-15T11:43:38.277Z,11.10
2019-05-15T11:46:09.886Z,11.20
2019-05-15T11:48:40.325Z,11.10
2019-05-15T11:51:11.153Z,11.10
2019-05-15T11:53:42.361Z,11.10
2019-05-15T11:56:13.393Z,11.20
2019-05-15T11:58:44.586Z,11.30
2019-05-15T12:01:15.380Z,11.30
2019-05-15T12:03:46.513Z,11.30
2019-05-15T12:06:22.450Z,11.30
2019-05-15T12:08:49.845Z,11.30
2019-05-15T12:11:33.232Z,11.30
2019-05-15T12:13:53.016Z,11.30
2019-05-15T12:16:23.780Z,11.30
2019-05-15T12:18:54.757Z,11.30
2019-05-15T12:21:28.409Z,11.30
2019-05-15T12:23:59.068Z,11.30
2019-05-15T12:26:29.859Z,11.30
2019-05-15T12:29:00.419Z,11.30
2019-05-15T12:31:31.234Z,11.30
2019-05-15T12:34:02.052Z,11.30
2019-05-15T12:36:51.319Z,11.20
2019-05-15T12:59:44.865Z,11.30
2019-05-15T13:02:01.077Z,11.30
2019-05-15T13:07:16.338Z,11.30
2019-05-15T13:09:42.772Z,11.40
2019-05-15T13:12:13.736Z,11.40
2019-05-15T13:14:44.393Z,11.40
2019-05-15T13:17:15.289Z,11.40
2019-05-15T13:19:48.102Z,11.40
2019-05-15T13:22:24.378Z,11.40
2019-05-15T13:24:50.576Z,11.40
2019-05-15T13:27:21.310Z,11.40
2019-05-15T13:29:52.675Z,11.40
2019-05-15T13:32:23.560Z,11.40
2019-05-15T13:34:54.277Z,11.40
2019-05-15T13:37:27.357Z,11.30
2019-05-15T13:39:58.711Z,11.40
2019-05-15T13:42:29.014Z,11.40
2019-05-15T13:44:59.662Z,11.40
2019-05-15T13:47:30.724Z,11.30
2019-05-15T13:50:01.520Z,11.30
2019-05-15T13:52:32.193Z,11.30
2019-05-15T13:55:02.825Z,11.30
2019-05-15T13:57:33.356Z,11.40
2019-05-15T14:00:03.875Z,11.30
2019-05-15T14:02:35.762Z,11.30
2019-05-15T14:05:09.291Z,11.30
2019-05-15T14:07:49.024Z,11.30
2019-05-15T14:10:12.060Z,11.40
2019-05-15T14:12:42.718Z,11.40
2019-05-15T14:15:13.427Z,11.40
2019-05-15T14:17:44.211Z,11.40
2019-05-15T14:20:15.587Z,11.40
2019-05-15T14:22:48.426Z,11.40
2019-05-15T14:25:18.521Z,11.40
2019-05-15T14:27:49.462Z,11.50
2019-05-15T14:30:20.373Z,11.50
2019-05-15T14:32:51.024Z,11.50
2019-05-15T14:35:21.531Z,11.50
2019-05-15T14:38:02.671Z,11.50
2019-05-15T14:40:24.361Z,11.60
2019-05-15T14:42:54.962Z,11.60
2019-05-15T14:45:27.669Z,11.60
2019-05-15T14:47:58.201Z,11.70
2019-05-15T14:50:28.920Z,11.60
2019-05-15T14:52:59.475Z,11.70
2019-05-15T14:55:33.709Z,11.60
2019-05-15T14:58:02.262Z,11.60
2019-05-15T15:00:34.685Z,11.60
2019-05-15T15:03:05.237Z,11.60
2019-05-15T15:05:38.316Z,11.60
2019-05-15T15:08:21.527Z,11.60
2019-05-15T15:10:41.668Z,11.60
2019-05-15T15:13:12.241Z,11.60
2019-05-15T15:15:43.324Z,11.60
2019-05-15T15:18:13.903Z,11.60
2019-05-15T15:20:48.107Z,11.60
2019-05-15T15:23:18.287Z,11.60
2019-05-15T15:25:49.246Z,11.60
2019-05-15T15:28:20.125Z,11.70
2019-05-15T15:30:50.829Z,11.70
2019-05-15T15:33:21.521Z,11.70
2019-05-15T15:35:52.068Z,11.70
2019-05-15T15:38:37.608Z,11.70
2019-05-15T15:40:55.823Z,11.70
2019-05-15T15:43:28.825Z,11.70
2019-05-15T15:45:59.863Z,11.70
2019-05-15T15:48:30.512Z,11.60
2019-05-15T15:51:01.235Z,11.60
2019-05-15T15:53:32.160Z,11.60
2019-05-15T15:56:03.097Z,11.60
2019-05-15T15:58:34.195Z,11.60
2019-05-15T16:01:05.044Z,11.60
2019-05-15T16:03:37.874Z,11.50
2019-05-15T16:06:08.328Z,11.50
2019-05-15T16:08:51.956Z,11.50
2019-05-15T16:11:11.577Z,11.50
2019-05-15T16:13:42.122Z,11.50
2019-05-15T16:16:12.732Z,11.50
2019-05-15T16:18:44.029Z,11.50
2019-05-15T16:21:14.804Z,11.50
2019-05-15T16:23:48.033Z,11.50
2019-05-15T16:26:19.490Z,11.50
2019-05-15T16:28:50.638Z,11.50
2019-05-15T16:31:21.513Z,11.50
2019-05-15T16:33:52.688Z,11.50
2019-05-15T16:36:23.607Z,11.40
2019-05-15T16:39:05.260Z,11.40
2019-05-15T16:41:29.027Z,11.40
2019-05-15T16:43:59.645Z,11.40
2019-05-15T16:46:30.824Z,11.40
2019-05-15T16:49:01.755Z,11.40
2019-05-15T16:51:32.982Z,11.40
2019-05-15T16:54:04.126Z,11.40
2019-05-15T16:56:36.580Z,11.40
2019-05-15T16:59:07.845Z,11.40
2019-05-15T17:01:39.334Z,11.40
2019-05-15T17:04:10.313Z,11.30
2019-05-15T17:06:41.541Z,11.40
2019-05-15T17:09:21.147Z,11.30
2019-05-15T17:11:49.009Z,11.30
2019-05-15T17:14:20.048Z,11.30
2019-05-15T17:16:50.990Z,11.30
2019-05-15T17:19:21.640Z,11.30
2019-05-15T17:21:52.742Z,11.30
2019-05-15T17:24:23.551Z,11.30
2019-05-15T17:26:54.210Z,11.30
2019-05-15T17:29:25.435Z,11.30
2019-05-15T17:31:56.276Z,11.30
2019-05-15T17:34:28.592Z,11.30
2019-05-15T17:36:59.236Z,11.30
2019-05-15T17:39:36.535Z,11.30
2019-05-15T17:42:04.148Z,11.30
2019-05-15T17:44:37.774Z,11.30
2019-05-15T17:47:09.688Z,11.30
2019-05-15T17:49:40.980Z,11.30
2019-05-15T17:52:11.991Z,11.30
2019-05-15T17:54:45.182Z,11.20
2019-05-15T17:57:15.755Z,11.20
2019-05-15T17:59:48.627Z,11.20
2019-05-15T18:02:19.579Z,11.20
2019-05-15T18:04:50.897Z,11.20
2019-05-15T18:07:21.589Z,11.20
2019-05-15T18:09:54.407Z,11.20
2019-05-15T18:12:26.191Z,11.20
2019-05-15T18:14:58.349Z,11.20
2019-05-15T18:17:29.516Z,11.10
2019-05-15T18:20:00.402Z,11.10
2019-05-15T18:22:38.557Z,11.10
2019-05-15T18:25:10.789Z,11.20
2019-05-15T18:27:41.908Z,11.10
2019-05-15T18:30:13.285Z,11.10
2019-05-15T18:32:45.449Z,11.10
2019-05-15T18:35:18.790Z,11.10
2019-05-15T18:37:49.747Z,11.10
2019-05-15T18:40:21.769Z,11.10
2019-05-15T18:42:52.386Z,11.10
2019-05-15T18:45:24.068Z,11.10
2019-05-15T18:47:55.083Z,11.10
2019-05-15T18:50:27.985Z,11.10
2019-05-15T18:52:58.778Z,11.10
2019-05-15T18:55:29.916Z,11.10
2019-05-15T18:58:09.037Z,11.10
2019-05-15T19:00:40.353Z,11.10
2019-05-15T19:03:19.700Z,11.10
2019-05-15T19:05:44.185Z,11.10
2019-05-15T19:08:15.126Z,11.10
2019-05-15T19:10:47.735Z,11.10
2019-05-15T19:13:18.592Z,11.10
2019-05-15T19:15:49.627Z,11.00
2019-05-15T19:18:20.685Z,11.10
2019-05-15T19:20:51.537Z,11.10
2019-05-15T19:23:22.435Z,11.00
2019-05-15T19:25:53.253Z,11.10
2019-05-15T19:28:24.619Z,11.00
2019-05-15T19:30:55.464Z,11.00
2019-05-15T19:33:34.472Z,11.00
2019-05-15T19:35:58.893Z,11.00
2019-05-15T19:38:30.017Z,11.00
2019-05-15T19:41:03.778Z,11.00
2019-05-15T19:43:34.297Z,11.00
2019-05-15T19:46:07.808Z,11.00
2019-05-15T19:48:38.607Z,10.90
2019-05-15T19:51:09.806Z,11.00
2019-05-15T19:53:40.980Z,10.90
2019-05-15T19:56:12.342Z,10.90
2019-05-15T19:58:43.787Z,10.90
2019-05-15T20:01:15.157Z,10.90
2019-05-15T20:03:52.251Z,10.90
2019-05-15T20:06:19.453Z,10.90
2019-05-15T20:08:50.598Z,10.90
2019-05-15T20:11:21.555Z,10.80
2019-05-15T20:13:52.597Z,10.80
2019-05-15T20:16:23.507Z,10.80
2019-05-15T20:18:54.587Z,10.80
2019-05-15T20:21:25.718Z,10.80
2019-05-15T20:23:58.088Z,10.90
2019-05-15T20:26:29.134Z,10.80
2019-05-15T20:29:00.099Z,10.80
2019-05-15T20:31:32.335Z,10.90
2019-05-15T20:34:06.029Z,10.80
2019-05-15T20:36:38.334Z,10.90
2019-05-15T20:39:08.711Z,10.80
2019-05-15T20:41:40.124Z,10.80
2019-05-15T20:44:10.659Z,10.80
2019-05-15T20:46:41.399Z,10.80
2019-05-15T20:49:12.230Z,10.80
2019-05-15T20:51:43.507Z,10.80
2019-05-15T20:54:14.495Z,10.80
2019-05-15T20:56:45.632Z,10.80
2019-05-15T20:59:18.235Z,10.80
2019-05-15T21:01:50.847Z,10.80
2019-05-15T21:04:23.813Z,10.80
2019-05-15T21:06:54.991Z,10.80
2019-05-15T21:09:28.428Z,10.80
2019-05-15T21:11:58.885Z,10.80
2019-05-15T21:14:30.049Z,10.80
2019-05-15T21:17:01.196Z,10.80
2019-05-15T21:19:32.447Z,10.70
2019-05-15T21:22:03.691Z,10.80
2019-05-15T21:24:34.667Z,10.70
2019-05-15T21:27:05.407Z,10.70
2019-05-15T21:29:38.182Z,10.70
2019-05-15T21:32:08.908Z,10.70
2019-05-15T21:34:44.072Z,10.70
2019-05-15T21:37:12.528Z,10.70
2019-05-15T21:39:43.446Z,10.70
2019-05-15T21:42:14.594Z,10.80
2019-05-15T21:44:45.121Z,10.70
2019-05-15T21:47:15.811Z,10.70
2019-05-15T21:49:48.213Z,10.70
2019-05-15T21:52:21.217Z,10.70
2019-05-15T21:54:52.208Z,10.70
2019-05-15T21:57:36.398Z,10.60
2019-05-15T22:00:08.775Z,10.70
2019-05-15T22:02:40.382Z,10.70
2019-05-15T22:05:11.635Z,10.70
2019-05-15T22:07:42.753Z,10.70
2019-05-15T22:10:14.260Z,10.60
2019-05-15T22:12:45.163Z,10.60
2019-05-15T22:15:19.036Z,10.60
2019-05-15T22:17:49.558Z,10.60
2019-05-15T22:20:20.807Z,10.60
2019-05-15T22:22:51.516Z,10.60
2019-05-15T22:25:22.279Z,10.60
2019-05-15T22:27:53.256Z,10.60
2019-05-15T22:30:24.786Z,10.60
2019-05-15T22:32:58.469Z,10.60
2019-05-15T22:35:29.567Z,10.60
2019-05-15T22:38:00.423Z,10.60
2019-05-15T22:40:31.052Z,10.60
2019-05-15T22:43:01.907Z,10.60
2019-05-15T22:45:32.599Z,10.60
2019-05-15T22:48:03.355Z,10.60
2019-05-15T22:50:34.152Z,10.50
2019-05-15T22:53:04.843Z,10.50
2019-05-15T22:55:37.530Z,10.50
2019-05-15T22:58:08.730Z,10.40
2019-05-15T23:00:39.620Z,10.50
2019-05-15T23:03:10.433Z,10.50
2019-05-15T23:05:41.144Z,10.50
2019-05-15T23:08:11.824Z,10.40
2019-05-15T23:10:42.328Z,10.50
2019-05-15T23:13:13.238Z,10.40
2019-05-15T23:15:44.129Z,10.40
2019-05-15T23:18:14.688Z,10.40
2019-05-15T23:20:47.755Z,10.40
2019-05-15T23:23:18.262Z,10.40
2019-05-15T23:25:49.803Z,10.40
2019-05-15T23:28:20.468Z,10.40
2019-05-15T23:30:50.929Z,10.40
2019-05-15T23:33:21.737Z,10.40
2019-05-15T23:35:52.649Z,10.40
2019-05-15T23:38:23.745Z,10.30
2019-05-15T23:40:54.625Z,10.40
2019-05-15T23:43:25.441Z,10.30
2019-05-15T23:45:58.759Z,10.30
2019-05-15T23:48:28.836Z,10.30
2019-05-15T23:51:00.236Z,10.30
2019-05-15T23:53:31.293Z,10.30
2019-05-15T23:56:02.285Z,10.30
2019-05-15T23:58:32.804Z,10.30
